Time;durP1;ratioP1;P1;durP2;ratioP2;P2;SDS_P1;SDS_P2;PMS_P1;PMS_P2;Temp;Humidity;BMP_temperature;BMP_pressure;BME280_temperature;BME280_humidity;BME280_pressure;Samples;Min_cycle;Max_cycle;Signal;HPM_P1;HPM_P2
2022/11/13 00:00:52;;;;;;;7.00;5.35;;;8.70;99.90;;;;;;5073281;28;20170;-57
2022/11/13 00:03:17;;;;;;;7.30;5.53;;;8.60;99.90;;;;;;5073170;28;20297;-55
2022/11/13 00:05:43;;;;;;;6.82;5.78;;;8.60;99.90;;;;;;5072866;28;20166;-56
2022/11/13 00:08:09;;;;;;;7.15;5.13;;;8.60;99.90;;;;;;5073018;28;20170;-51
2022/11/13 00:10:35;;;;;;;6.30;5.30;;;8.60;99.90;;;;;;5073686;28;20167;-52
2022/11/13 00:13:00;;;;;;;8.32;5.80;;;6.90;99.90;;;;;;5073222;28;20166;-52
2022/11/13 00:15:26;;;;;;;7.50;5.75;;;8.50;99.90;;;;;;5055017;28;20193;-53
2022/11/13 00:17:52;;;;;;;8.00;6.18;;;8.50;99.90;;;;;;5072805;28;20691;-53
2022/11/13 00:20:18;;;;;;;9.77;6.47;;;8.50;99.90;;;;;;5072844;28;20683;-54
2022/11/13 00:22:44;;;;;;;7.43;6.03;;;8.50;99.90;;;;;;5072860;28;20281;-51
2022/11/13 00:25:10;;;;;;;8.80;5.50;;;8.40;99.90;;;;;;5072882;28;20211;-51
2022/11/13 00:27:36;;;;;;;6.68;5.93;;;8.40;99.90;;;;;;5072705;28;20545;-52
2022/11/13 00:30:02;;;;;;;10.45;6.32;;;8.40;99.90;;;;;;5073253;28;20170;-51
2022/11/13 00:32:27;;;;;;;11.18;7.47;;;8.50;99.90;;;;;;5072711;28;20207;-51
2022/11/13 00:34:53;;;;;;;8.85;6.07;;;8.40;99.90;;;;;;5072545;28;20162;-52
2022/11/13 00:37:19;;;;;;;5.90;5.13;;;8.50;99.90;;;;;;5072536;28;20249;-52
2022/11/13 00:39:44;;;;;;;7.78;6.57;;;8.40;99.90;;;;;;5072489;28;20200;-51
2022/11/13 00:42:10;;;;;;;7.20;5.85;;;8.40;99.90;;;;;;5054747;28;20214;-51
2022/11/13 00:44:35;;;;;;;8.73;6.22;;;8.40;99.90;;;;;;5054427;28;20170;-52
2022/11/13 00:47:01;;;;;;;10.52;6.13;;;8.40;99.90;;;;;;5072755;28;20207;-51
2022/11/13 00:49:26;;;;;;;6.50;5.72;;;8.40;99.90;;;;;;5072288;28;20174;-52
2022/11/13 00:51:52;;;;;;;7.65;6.13;;;8.40;99.90;;;;;;5072514;28;20170;-51
2022/11/13 00:54:17;;;;;;;8.98;6.30;;;8.40;99.90;;;;;;5072239;28;20679;-51
2022/11/13 00:56:43;;;;;;;9.07;6.22;;;8.40;99.90;;;;;;5072196;28;20529;-51
2022/11/13 00:59:09;;;;;;;8.50;6.53;;;8.40;99.90;;;;;;5072030;28;20221;-51
2022/11/13 01:01:34;;;;;;;7.35;5.90;;;8.40;99.90;;;;;;5072121;28;20550;-52
2022/11/13 01:04:00;;;;;;;7.63;6.07;;;7.40;99.90;;;;;;5072326;28;20174;-51
2022/11/13 01:06:27;;;;;;;7.15;5.53;;;8.40;99.90;;;;;;5072050;28;20622;-52
2022/11/13 01:08:58;;;;;;;7.00;5.97;;;8.40;99.90;;;;;;5071976;28;20170;-53
2022/11/13 01:11:27;;;;;;;7.07;6.13;;;8.40;99.90;;;;;;5072012;28;20642;-51
2022/11/13 01:13:53;;;;;;;7.45;5.45;;;8.40;99.90;;;;;;5072187;28;20209;-51
2022/11/13 01:16:23;;;;;;;8.48;6.18;;;8.40;99.90;;;;;;5071334;28;20206;-52
2022/11/13 01:18:49;;;;;;;7.50;5.93;;;8.40;99.90;;;;;;5071903;28;20633;-52
2022/11/13 01:21:22;;;;;;;10.68;6.18;;;8.40;99.90;;;;;;5072089;28;20180;-51
2022/11/13 01:23:47;;;;;;;9.15;6.00;;;8.40;99.90;;;;;;5071784;28;20672;-51
2022/11/13 01:26:13;;;;;;;7.78;5.78;;;8.40;99.90;;;;;;5071800;28;20198;-51
2022/11/13 01:28:40;;;;;;;8.85;6.20;;;8.40;99.90;;;;;;5071806;28;20202;-52
2022/11/13 01:31:08;;;;;;;6.82;5.50;;;8.40;99.90;;;;;;5072063;28;20173;-50
2022/11/13 01:33:34;;;;;;;8.85;6.63;;;8.40;99.90;;;;;;5072050;28;20166;-52
2022/11/13 01:36:02;;;;;;;9.35;6.35;;;10.90;99.90;;;;;;5072106;28;20167;-52
2022/11/13 01:38:28;;;;;;;7.15;6.18;;;8.40;99.90;;;;;;5071765;28;20726;-53
2022/11/13 01:40:53;;;;;;;6.57;5.88;;;8.30;99.90;;;;;;5071920;28;20170;-51
2022/11/13 01:43:34;;;;;;;7.90;6.32;;;8.30;99.90;;;;;;5071555;28;20206;-52
2022/11/13 01:46:31;;;;;;;7.18;5.95;;;8.30;99.90;;;;;;5071942;28;20154;-52
2022/11/13 01:49:06;;;;;;;8.05;6.15;;;8.30;99.90;;;;;;5033350;28;20182;-54
2022/11/13 01:51:38;;;;;;;7.68;5.95;;;8.20;99.90;;;;;;5071868;28;20166;-52
2022/11/13 01:54:08;;;;;;;7.05;5.95;;;8.20;99.90;;;;;;5072188;28;20587;-53
2022/11/13 01:56:34;;;;;;;8.52;6.47;;;8.20;99.90;;;;;;5071897;28;20176;-52
2022/11/13 01:59:28;;;;;;;8.88;5.90;;;8.20;99.90;;;;;;5071621;28;20205;-53
2022/11/13 02:01:55;;;;;;;8.80;6.80;;;8.20;99.90;;;;;;5070809;28;20201;-52
2022/11/13 02:04:22;;;;;;;10.32;6.90;;;8.10;99.90;;;;;;5071695;28;20173;-52
2022/11/13 02:07:00;;;;;;;8.30;6.60;;;8.10;99.90;;;;;;5071508;28;20166;-51
2022/11/13 02:09:30;;;;;;;9.40;6.82;;;8.10;99.90;;;;;;5053535;28;20173;-54
2022/11/13 02:11:56;;;;;;;9.60;6.93;;;8.10;99.90;;;;;;5071441;28;20170;-52
2022/11/13 02:14:24;;;;;;;8.23;6.75;;;8.10;99.90;;;;;;5071428;28;20162;-52
2022/11/13 02:16:54;;;;;;;7.85;6.28;;;8.10;99.90;;;;;;5071424;28;20174;-52
2022/11/13 02:19:26;;;;;;;9.15;6.70;;;8.10;99.90;;;;;;5071356;28;20172;-56
2022/11/13 02:22:14;;;;;;;8.90;7.28;;;8.10;99.90;;;;;;5070716;28;20657;-55
2022/11/13 02:24:41;;;;;;;8.27;6.65;;;8.00;99.90;;;;;;5071291;28;20173;-52
2022/11/13 02:27:14;;;;;;;8.88;7.20;;;8.00;99.90;;;;;;5071039;28;20166;-52
2022/11/13 02:29:40;;;;;;;8.85;6.95;;;8.00;99.90;;;;;;5074951;28;20257;-52
2022/11/13 02:32:06;;;;;;;8.85;6.65;;;8.00;99.90;;;;;;5075018;28;20642;-52
2022/11/13 02:34:31;;;;;;;9.30;6.68;;;8.00;99.90;;;;;;5075252;28;20493;-51
2022/11/13 02:36:57;;;;;;;8.82;6.45;;;8.10;99.90;;;;;;5074871;28;20251;-56
2022/11/13 02:39:22;;;;;;;8.80;6.60;;;8.00;99.90;;;;;;5074857;28;20158;-53
2022/11/13 02:41:48;;;;;;;8.20;6.28;;;8.10;99.90;;;;;;5074601;28;20166;-53
2022/11/13 02:44:13;;;;;;;7.38;6.00;;;8.00;99.90;;;;;;5074737;28;20166;-52
2022/11/13 02:46:40;;;;;;;7.30;6.25;;;8.10;99.90;;;;;;5074666;28;20638;-52
2022/11/13 02:49:06;;;;;;;7.25;6.03;;;8.10;99.90;;;;;;5074610;28;20252;-54
2022/11/13 02:51:32;;;;;;;8.23;5.90;;;8.00;99.90;;;;;;5074877;28;20170;-56
2022/11/13 02:53:57;;;;;;;9.13;6.28;;;8.10;99.90;;;;;;5074592;28;20162;-51
2022/11/13 02:56:23;;;;;;;8.32;6.20;;;8.10;99.90;;;;;;5074552;28;20227;-51
2022/11/13 02:58:49;;;;;;;9.50;5.55;;;8.20;99.90;;;;;;5074354;28;20719;-52
2022/11/13 03:01:14;;;;;;;6.32;5.63;;;8.10;99.90;;;;;;5074471;28;20208;-53
2022/11/13 03:03:40;;;;;;;6.57;5.57;;;8.10;99.90;;;;;;5074362;28;20236;-52
2022/11/13 03:06:05;;;;;;;8.32;6.00;;;8.10;99.90;;;;;;5074763;28;20173;-53
2022/11/13 03:08:31;;;;;;;6.32;5.45;;;8.10;99.90;;;;;;5074610;28;20170;-53
2022/11/13 03:10:57;;;;;;;8.80;5.93;;;8.10;99.90;;;;;;5074252;28;20173;-52
2022/11/13 03:13:22;;;;;;;9.05;5.68;;;8.00;99.90;;;;;;5074120;28;20205;-54
2022/11/13 03:15:48;;;;;;;8.15;6.22;;;8.00;99.90;;;;;;5074177;28;20177;-55
2022/11/13 03:18:13;;;;;;;7.35;5.50;;;8.00;99.90;;;;;;5074142;28;20166;-56
2022/11/13 03:20:41;;;;;;;7.47;5.85;;;8.00;99.90;;;;;;5074117;28;20170;-56
2022/11/13 03:23:07;;;;;;;9.45;5.70;;;8.00;99.90;;;;;;5074245;28;20228;-56
2022/11/13 03:25:33;;;;;;;7.35;5.80;;;7.90;99.90;;;;;;5074299;28;20649;-56
2022/11/13 03:27:59;;;;;;;7.40;6.10;;;6.20;99.90;;;;;;5073900;28;20585;-55
2022/11/13 03:30:25;;;;;;;8.23;6.15;;;7.90;99.90;;;;;;5074110;28;20173;-56
2022/11/13 03:32:55;;;;;;;8.63;5.80;;;7.90;99.90;;;;;;5074095;28;20170;-56
2022/11/13 03:35:22;;;;;;;8.13;6.40;;;7.90;99.90;;;;;;5073679;28;20162;-55
2022/11/13 03:37:47;;;;;;;7.72;6.20;;;7.90;99.90;;;;;;5073735;28;20186;-56
2022/11/13 03:40:13;;;;;;;8.95;6.32;;;7.90;99.90;;;;;;5072749;28;20702;-55
2022/11/13 03:42:38;;;;;;;8.18;6.47;;;7.90;99.90;;;;;;5073484;28;20625;-56
2022/11/13 03:45:04;;;;;;;8.65;6.28;;;7.80;99.90;;;;;;5073823;28;20622;-52
2022/11/13 03:47:30;;;;;;;9.40;6.25;;;7.80;99.90;;;;;;5073840;28;20503;-56
2022/11/13 03:49:55;;;;;;;8.25;5.97;;;7.80;99.90;;;;;;5073534;28;20211;-53
2022/11/13 03:52:21;;;;;;;9.25;6.60;;;7.70;99.90;;;;;;5073406;28;20642;-51
2022/11/13 03:54:46;;;;;;;8.15;6.38;;;7.70;99.90;;;;;;5073401;28;20236;-51
2022/11/13 03:57:12;;;;;;;11.10;6.50;;;7.80;99.90;;;;;;5073330;28;20170;-51
2022/11/13 03:59:37;;;;;;;7.32;5.82;;;7.80;99.90;;;;;;5073211;28;20226;-51
2022/11/13 04:02:03;;;;;;;6.97;6.13;;;7.70;99.90;;;;;;5073515;28;20186;-51
2022/11/13 04:04:29;;;;;;;10.05;6.43;;;7.70;99.90;;;;;;5073167;28;20182;-52
2022/11/13 04:06:54;;;;;;;8.50;6.20;;;7.60;99.90;;;;;;5073164;28;20234;-51
2022/11/13 04:09:20;;;;;;;8.77;6.32;;;7.60;99.90;;;;;;5073387;28;20208;-51
2022/11/13 04:11:45;;;;;;;6.93;5.82;;;7.60;99.90;;;;;;5073105;28;20633;-51
2022/11/13 04:14:11;;;;;;;8.52;6.43;;;7.60;99.90;;;;;;5073023;28;20637;-51
2022/11/13 04:16:36;;;;;;;9.77;6.53;;;7.60;99.90;;;;;;5072917;28;20661;-51
2022/11/13 04:19:02;;;;;;;7.68;5.72;;;7.50;99.90;;;;;;5073226;28;20166;-52
2022/11/13 04:21:28;;;;;;;7.13;5.95;;;7.50;99.90;;;;;;5072880;28;20664;-51
2022/11/13 04:23:53;;;;;;;8.00;6.25;;;7.50;99.90;;;;;;5072734;28;20240;-52
2022/11/13 04:26:19;;;;;;;8.25;6.07;;;7.50;99.90;;;;;;5072826;28;20257;-52
2022/11/13 04:28:44;;;;;;;7.90;6.25;;;7.50;99.90;;;;;;5072755;28;20219;-52
2022/11/13 04:31:10;;;;;;;8.27;6.10;;;7.50;99.90;;;;;;5072693;28;20172;-55
2022/11/13 04:33:35;;;;;;;9.32;6.72;;;7.50;99.90;;;;;;5072747;28;20169;-52
2022/11/13 04:36:01;;;;;;;7.40;6.05;;;7.40;99.90;;;;;;5073015;28;20170;-52
2022/11/13 04:38:26;;;;;;;8.02;6.05;;;7.40;99.90;;;;;;5072650;28;20276;-54
2022/11/13 04:42:47;;;;;;;10.20;6.57;;;7.40;99.90;;;;;;5072482;28;20175;-54
2022/11/13 04:43:37;;;;;;;8.38;6.03;;;7.30;99.90;;;;;;5072156;28;20263;-52
2022/11/13 04:46:03;;;;;;;9.18;6.63;;;7.40;99.90;;;;;;5072948;28;20177;-54
2022/11/13 04:48:29;;;;;;;8.10;6.28;;;7.30;99.90;;;;;;5072651;28;20174;-52
2022/11/13 04:50:54;;;;;;;8.57;5.80;;;7.30;99.90;;;;;;5072166;28;20173;-52
2022/11/13 04:53:20;;;;;;;9.27;6.43;;;7.30;99.90;;;;;;5072204;28;20178;-52
2022/11/13 04:55:45;;;;;;;7.35;5.70;;;7.20;99.90;;;;;;5072163;28;20162;-52
2022/11/13 04:58:11;;;;;;;8.25;6.32;;;7.30;99.90;;;;;;5072136;28;20172;-52
2022/11/13 05:00:36;;;;;;;8.25;6.40;;;7.20;99.90;;;;;;5071921;28;20569;-52
2022/11/13 05:03:02;;;;;;;7.65;5.55;;;7.20;99.90;;;;;;5072345;28;20209;-51
2022/11/13 05:05:28;;;;;;;8.27;6.30;;;7.20;99.90;;;;;;5072026;28;20162;-51
2022/11/13 05:07:54;;;;;;;8.60;5.30;;;7.20;99.90;;;;;;5072241;28;20178;-51
2022/11/13 05:10:20;;;;;;;7.93;6.05;;;7.10;99.90;;;;;;5071948;28;20162;-51
2022/11/13 05:12:46;;;;;;;8.57;6.20;;;7.10;99.90;;;;;;5071832;28;20630;-51
2022/11/13 05:15:11;;;;;;;10.50;5.65;;;7.10;99.90;;;;;;5072157;28;20224;-51
2022/11/13 05:17:37;;;;;;;9.43;6.00;;;7.20;99.90;;;;;;5071942;28;20601;-51
2022/11/13 05:20:03;;;;;;;7.00;5.45;;;7.20;99.90;;;;;;5072162;28;20227;-52
2022/11/13 05:22:29;;;;;;;8.07;5.75;;;7.20;99.90;;;;;;5072121;28;20202;-52
2022/11/13 05:24:54;;;;;;;7.35;5.63;;;7.20;99.90;;;;;;5071813;28;20177;-51
2022/11/13 05:27:20;;;;;;;7.43;6.15;;;7.20;99.90;;;;;;5071860;28;20186;-51
2022/11/13 05:29:46;;;;;;;10.20;6.85;;;7.20;99.90;;;;;;5071793;28;20215;-52
2022/11/13 05:32:11;;;;;;;6.88;5.63;;;7.20;99.90;;;;;;5053824;28;20166;-52
2022/11/13 05:34:37;;;;;;;7.20;6.15;;;7.20;99.90;;;;;;5071772;28;20260;-51
2022/11/13 05:37:02;;;;;;;10.63;6.35;;;7.20;99.90;;;;;;5072035;28;20162;-51
2022/11/13 05:39:28;;;;;;;9.63;6.97;;;7.10;99.90;;;;;;5072037;28;20169;-51
2022/11/13 05:41:53;;;;;;;8.38;6.20;;;7.10;99.90;;;;;;5071580;28;20730;-51
2022/11/13 05:44:19;;;;;;;8.52;6.35;;;7.10;99.90;;;;;;5071591;28;20173;-52
2022/11/13 05:46:45;;;;;;;9.02;6.25;;;7.10;99.90;;;;;;5071595;28;20162;-52
2022/11/13 05:49:10;;;;;;;10.43;6.40;;;7.10;99.90;;;;;;5071596;28;20202;-51
2022/11/13 05:51:36;;;;;;;13.07;6.80;;;7.00;99.90;;;;;;5071687;28;20244;-51
2022/11/13 05:54:01;;;;;;;11.70;7.00;;;7.00;99.90;;;;;;5071944;28;20169;-52
2022/11/13 05:56:33;;;;;;;14.23;8.30;;;7.00;99.90;;;;;;5071554;28;20589;-52
2022/11/13 05:58:59;;;;;;;9.35;6.63;;;7.00;99.90;;;;;;5071853;28;20213;-52
2022/11/13 06:01:34;;;;;;;8.88;6.18;;;6.90;99.90;;;;;;5071497;28;20633;-51
2022/11/13 06:04:00;;;;;;;7.50;6.25;;;7.00;99.90;;;;;;5075278;28;20564;-52
2022/11/13 06:06:28;;;;;;;10.95;6.95;;;6.90;99.90;;;;;;5075348;28;20170;-51
2022/11/13 06:08:55;;;;;;;10.65;6.25;;;6.90;99.90;;;;;;5075329;28;20223;-52
2022/11/13 06:11:23;;;;;;;7.43;6.00;;;6.90;99.90;;;;;;5075293;28;20165;-52
2022/11/13 06:13:50;;;;;;;11.32;6.57;;;6.80;99.90;;;;;;5075316;28;20207;-51
2022/11/13 06:16:19;;;;;;;10.93;6.80;;;6.90;99.90;;;;;;5075167;28;20174;-51
2022/11/13 06:18:45;;;;;;;11.20;7.00;;;6.80;99.90;;;;;;5075279;28;20166;-52
2022/11/13 06:21:13;;;;;;;8.75;6.35;;;6.80;99.90;;;;;;5075209;28;20689;-52
2022/11/13 06:23:40;;;;;;;10.65;6.60;;;6.80;99.90;;;;;;5075009;28;20562;-51
2022/11/13 06:26:12;;;;;;;11.73;7.28;;;6.80;99.90;;;;;;5075003;28;20201;-51
2022/11/13 06:28:38;;;;;;;13.57;8.02;;;6.80;99.90;;;;;;5075030;28;20177;-51
2022/11/13 06:31:05;;;;;;;9.90;6.85;;;6.80;99.90;;;;;;5074988;28;20633;-53
2022/11/13 06:33:30;;;;;;;9.27;6.65;;;6.70;99.90;;;;;;5075288;28;20170;-54
2022/11/13 06:35:56;;;;;;;8.70;6.15;;;6.70;99.90;;;;;;5075104;28;20166;-56
2022/11/13 06:38:21;;;;;;;8.45;5.90;;;6.80;99.90;;;;;;5074810;28;20676;-55
2022/11/13 06:40:47;;;;;;;7.93;5.75;;;6.80;99.90;;;;;;5074821;28;20224;-55
2022/11/13 06:43:12;;;;;;;7.05;6.00;;;6.80;99.90;;;;;;5074634;28;20201;-54
2022/11/13 06:45:38;;;;;;;11.55;7.18;;;6.80;99.90;;;;;;5074676;28;20165;-55
2022/11/13 06:48:04;;;;;;;10.32;6.13;;;6.80;99.90;;;;;;5074577;28;20170;-54
2022/11/13 06:50:29;;;;;;;8.43;5.60;;;6.80;99.90;;;;;;5075123;28;20215;-54
2022/11/13 06:52:55;;;;;;;8.38;6.05;;;6.80;99.90;;;;;;5074491;28;20197;-52
2022/11/13 06:55:21;;;;;;;8.30;6.60;;;6.80;99.90;;;;;;5074592;28;20542;-53
2022/11/13 06:57:46;;;;;;;9.55;5.75;;;6.80;99.90;;;;;;5074411;28;20230;-52
2022/11/13 07:00:12;;;;;;;11.93;7.53;;;6.90;99.90;;;;;;5074350;28;20305;-52
2022/11/13 07:02:38;;;;;;;8.52;5.95;;;6.80;99.90;;;;;;5074501;28;20258;-52
2022/11/13 07:05:04;;;;;;;10.23;6.57;;;6.80;99.90;;;;;;5074168;28;20638;-51
2022/11/13 07:07:29;;;;;;;9.43;6.38;;;6.80;99.90;;;;;;5074409;28;20215;-51
2022/11/13 07:09:55;;;;;;;9.45;6.07;;;6.80;99.90;;;;;;5074219;28;20233;-51
2022/11/13 07:12:20;;;;;;;7.68;5.50;;;6.90;99.90;;;;;;5074204;28;20198;-52
2022/11/13 07:14:46;;;;;;;7.70;5.43;;;6.90;99.90;;;;;;5054904;28;20169;-51
2022/11/13 07:17:11;;;;;;;7.43;5.53;;;6.90;99.90;;;;;;5074205;28;20172;-52
2022/11/13 07:19:37;;;;;;;14.30;6.05;;;6.90;99.90;;;;;;5074186;28;20162;-52
2022/11/13 07:22:02;;;;;;;8.68;5.15;;;6.90;99.90;;;;;;5073965;28;20165;-52
2022/11/13 07:24:28;;;;;;;10.07;5.30;;;7.00;99.90;;;;;;5074462;28;20181;-52
2022/11/13 07:26:54;;;;;;;9.90;5.00;;;7.00;99.90;;;;;;5073886;28;20162;-52
2022/11/13 07:29:19;;;;;;;13.02;7.03;;;7.00;99.90;;;;;;5073936;28;20192;-55
2022/11/13 07:31:45;;;;;;;12.50;6.53;;;7.00;99.90;;;;;;5074087;28;20173;-51
2022/11/13 07:34:10;;;;;;;9.55;6.68;;;7.10;99.90;;;;;;5073802;28;20582;-56
2022/11/13 07:36:36;;;;;;;13.00;6.43;;;7.10;99.90;;;;;;5073683;28;20510;-57
2022/11/13 07:39:01;;;;;;;6.45;5.32;;;7.20;99.90;;;;;;5074090;28;20185;-56
2022/11/13 07:41:27;;;;;;;7.07;5.22;;;7.20;99.90;;;;;;5073837;28;20170;-57
2022/11/13 07:43:52;;;;;;;9.80;5.22;;;7.30;99.90;;;;;;5073359;28;20610;-57
2022/11/13 07:46:18;;;;;;;8.02;5.30;;;7.40;99.90;;;;;;5073478;28;20173;-56
2022/11/13 07:48:44;;;;;;;6.15;4.60;;;7.50;99.90;;;;;;5073587;28;20169;-52
2022/11/13 07:51:09;;;;;;;7.00;5.18;;;7.60;99.90;;;;;;5073341;28;20173;-53
2022/11/13 07:53:35;;;;;;;8.77;5.55;;;7.70;99.90;;;;;;5073533;28;20166;-53
2022/11/13 07:56:02;;;;;;;6.35;5.40;;;7.80;99.90;;;;;;5073950;28;20196;-53
2022/11/13 07:58:28;;;;;;;6.50;4.68;;;7.90;99.90;;;;;;5073693;28;20223;-53
2022/11/13 08:00:53;;;;;;;7.38;5.22;;;8.00;99.90;;;;;;5072974;28;20580;-53
2022/11/13 08:03:19;;;;;;;6.43;4.90;;;7.90;99.90;;;;;;5072777;28;20213;-54
2022/11/13 08:05:45;;;;;;;7.00;5.00;;;8.00;99.90;;;;;;5073162;28;20538;-53
2022/11/13 08:08:12;;;;;;;7.15;5.90;;;8.10;99.90;;;;;;5073024;28;20192;-54
2022/11/13 08:10:38;;;;;;;8.18;4.85;;;8.20;99.90;;;;;;5073196;28;20227;-55
2022/11/13 08:13:06;;;;;;;9.32;5.20;;;8.30;99.90;;;;;;5072846;28;20569;-55
2022/11/13 08:15:32;;;;;;;8.20;5.90;;;8.40;99.90;;;;;;5073329;28;20224;-52
2022/11/13 08:17:59;;;;;;;9.68;5.57;;;8.40;99.90;;;;;;5073329;28;20629;-53
2022/11/13 08:20:26;;;;;;;8.57;5.15;;;8.50;99.90;;;;;;5072732;28;20170;-52
2022/11/13 08:22:55;;;;;;;7.03;5.15;;;8.60;99.90;;;;;;5072594;28;20284;-52
2022/11/13 08:25:20;;;;;;;8.15;4.97;;;8.70;99.90;;;;;;5072203;28;20552;-53
2022/11/13 08:27:46;;;;;;;5.55;4.43;;;8.70;99.90;;;;;;5072806;28;20181;-53
2022/11/13 08:30:12;;;;;;;9.75;5.95;;;8.80;99.90;;;;;;5072593;28;20633;-52
2022/11/13 08:32:38;;;;;;;6.30;4.85;;;8.80;99.90;;;;;;5071728;28;20166;-52
2022/11/13 08:35:04;;;;;;;13.32;6.25;;;9.00;99.90;;;;;;5072507;28;20640;-52
2022/11/13 08:37:31;;;;;;;8.18;5.53;;;9.00;99.90;;;;;;5055328;28;20208;-53
2022/11/13 08:39:56;;;;;;;8.85;5.55;;;9.20;99.90;;;;;;5072443;28;20250;-52
2022/11/13 08:42:22;;;;;;;8.07;4.68;;;9.20;99.90;;;;;;5072294;28;20293;-52
2022/11/13 08:44:48;;;;;;;16.77;7.03;;;9.40;99.90;;;;;;5072356;28;20155;-53
2022/11/13 08:47:13;;;;;;;10.07;5.43;;;9.50;99.90;;;;;;5072327;28;20209;-53
2022/11/13 08:49:39;;;;;;;9.73;5.13;;;9.60;99.90;;;;;;5072326;28;20281;-52
2022/11/13 08:52:04;;;;;;;8.07;4.80;;;9.70;99.90;;;;;;5072239;28;20177;-53
2022/11/13 08:54:30;;;;;;;11.90;5.25;;;9.80;99.90;;;;;;5072690;28;20253;-52
2022/11/13 08:56:55;;;;;;;19.73;6.72;;;9.90;99.90;;;;;;5072182;28;20650;-53
2022/11/13 08:59:22;;;;;;;7.35;4.63;;;10.00;99.90;;;;;;5076591;28;20776;-53
2022/11/13 09:01:48;;;;;;;6.45;4.40;;;10.00;99.90;;;;;;5072996;28;20192;-53
2022/11/13 09:04:15;;;;;;;6.20;4.10;;;10.10;99.90;;;;;;5090870;28;20294;-52
2022/11/13 09:06:40;;;;;;;6.45;4.35;;;10.20;99.90;;;;;;5091256;28;20201;-51
2022/11/13 09:09:06;;;;;;;4.90;3.75;;;12.90;99.90;;;;;;5090947;28;20176;-58
2022/11/13 09:11:33;;;;;;;4.65;3.58;;;10.20;99.90;;;;;;5091023;28;20172;-56
2022/11/13 09:13:59;;;;;;;5.75;3.85;;;10.30;99.90;;;;;;5084438;28;20166;-54
2022/11/13 09:16:24;;;;;;;6.45;4.43;;;10.40;99.90;;;;;;5078216;28;20183;-51
2022/11/13 09:18:51;;;;;;;5.30;3.55;;;10.40;99.90;;;;;;5091723;28;20176;-52
2022/11/13 09:21:16;;;;;;;5.80;4.13;;;10.50;99.90;;;;;;5092014;28;20651;-53
2022/11/13 09:23:42;;;;;;;5.15;4.07;;;10.50;99.90;;;;;;5091090;28;20283;-52
2022/11/13 09:26:08;;;;;;;6.72;3.58;;;10.50;99.90;;;;;;5077962;28;20252;-53
2022/11/13 09:28:35;;;;;;;4.57;3.90;;;10.60;99.90;;;;;;5070288;28;20166;-54
2022/11/13 09:31:06;;;;;;;4.40;3.58;;;10.70;99.90;;;;;;5070693;28;20170;-53
2022/11/13 09:33:33;;;;;;;4.95;3.40;;;10.80;99.90;;;;;;5070108;28;20170;-53
2022/11/13 09:35:58;;;;;;;6.93;3.90;;;10.90;99.90;;;;;;5070568;28;20560;-51
2022/11/13 09:38:24;;;;;;;4.00;3.58;;;11.00;99.90;;;;;;5069454;28;20768;-53
2022/11/13 09:41:01;;;;;;;4.28;3.58;;;11.10;99.90;;;;;;5070196;28;20215;-54
2022/11/13 09:43:44;;;;;;;6.65;3.35;;;11.10;99.90;;;;;;5070467;28;20205;-53
2022/11/13 09:46:34;;;;;;;4.97;3.60;;;11.20;99.90;;;;;;5070221;28;20897;-51
2022/11/13 09:49:28;;;;;;;5.40;3.60;;;11.20;99.90;;;;;;5070438;28;20529;-55
2022/11/13 09:51:58;;;;;;;4.60;3.55;;;11.30;99.90;;;;;;5070119;28;20180;-54
2022/11/13 09:54:24;;;;;;;4.43;3.50;;;11.30;99.90;;;;;;5070112;28;20625;-51
2022/11/13 09:57:11;;;;;;;7.63;3.92;;;11.30;99.90;;;;;;5052131;28;20214;-52
2022/11/13 09:59:47;;;;;;;7.03;4.60;;;11.30;99.90;;;;;;5069898;28;20216;-53
2022/11/13 10:02:35;;;;;;;6.18;4.55;;;11.40;99.90;;;;;;5070165;28;20289;-54
2022/11/13 10:05:13;;;;;;;6.78;4.45;;;11.50;99.90;;;;;;5070045;28;20207;-54
2022/11/13 10:08:06;;;;;;;7.15;4.22;;;11.60;99.90;;;;;;5069847;28;20172;-54
2022/11/13 10:10:47;;;;;;;7.47;5.03;;;11.70;99.90;;;;;;5069902;28;20162;-53
2022/11/13 10:13:26;;;;;;;7.13;4.03;;;11.80;99.90;;;;;;5070118;28;20170;-53
2022/11/13 10:16:08;;;;;;;6.07;3.75;;;11.80;99.90;;;;;;5069783;28;20173;-54
2022/11/13 10:18:36;;;;;;;5.00;3.38;;;11.80;99.90;;;;;;5069911;28;20637;-53
2022/11/13 10:21:24;;;;;;;4.35;3.38;;;11.90;99.90;;;;;;5069712;28;20170;-53
2022/11/13 10:23:55;;;;;;;5.90;3.85;;;12.00;99.90;;;;;;5069748;28;20281;-53
2022/11/13 10:26:23;;;;;;;4.80;3.22;;;12.10;99.90;;;;;;5069757;28;20273;-53
2022/11/13 10:28:58;;;;;;;3.75;2.88;;;12.20;99.90;;;;;;5069684;28;20642;-54
2022/11/13 10:31:23;;;;;;;3.80;3.08;;;12.30;99.90;;;;;;5051841;28;20203;-53
2022/11/13 10:33:51;;;;;;;3.78;2.95;;;12.40;99.90;;;;;;5069669;28;20174;-54
2022/11/13 10:36:44;;;;;;;3.92;2.90;;;12.50;99.90;;;;;;5069898;28;20200;-53
2022/11/13 10:39:10;;;;;;;3.45;2.83;;;12.60;99.90;;;;;;5069626;28;20159;-54
2022/11/13 10:41:53;;;;;;;2.92;2.47;;;12.60;99.90;;;;;;5069604;28;20234;-55
2022/11/13 10:44:25;;;;;;;4.25;2.50;;;12.70;99.90;;;;;;5069521;28;20312;-52
2022/11/13 10:47:02;;;;;;;2.50;2.20;;;12.80;99.90;;;;;;5069634;28;20165;-51
2022/11/13 10:49:27;;;;;;;2.92;2.45;;;12.90;99.90;;;;;;5071985;28;20173;-55
2022/11/13 10:51:58;;;;;;;2.67;2.30;;;13.00;99.90;;;;;;5073298;28;20187;-56
2022/11/13 10:54:29;;;;;;;3.85;2.65;;;13.00;99.90;;;;;;5073031;28;20653;-54
2022/11/13 10:57:01;;;;;;;2.40;2.20;;;13.00;99.90;;;;;;5073188;28;20181;-52
2022/11/13 10:59:40;;;;;;;2.83;2.53;;;13.10;99.90;;;;;;5073313;28;20222;-57
2022/11/13 11:02:34;;;;;;;3.20;2.20;;;13.20;99.90;;;;;;5072908;28;20170;-63
2022/11/13 11:05:27;;;;;;;3.25;2.25;;;13.20;99.90;;;;;;5073192;28;20178;-53
2022/11/13 11:07:54;;;;;;;2.40;2.20;;;13.30;99.90;;;;;;5068993;28;20178;-51
2022/11/13 11:10:22;;;;;;;3.70;2.35;;;13.40;99.90;;;;;;5073127;28;20174;-53
2022/11/13 11:12:52;;;;;;;3.97;2.22;;;13.40;99.90;;;;;;5072780;28;20223;-53
2022/11/13 11:15:31;;;;;;;3.30;2.13;;;13.50;99.90;;;;;;5072672;28;20292;-52
2022/11/13 11:18:03;;;;;;;3.08;1.98;;;13.60;99.90;;;;;;5073240;28;20528;-54
2022/11/13 11:20:40;;;;;;;4.07;1.95;;;13.70;99.90;;;;;;5073076;28;20189;-54
2022/11/13 11:23:21;;;;;;;3.65;2.33;;;13.70;99.90;;;;;;5072713;28;20213;-53
2022/11/13 11:25:58;;;;;;;2.15;1.90;;;13.80;99.90;;;;;;5072757;28;20170;-53
2022/11/13 11:28:53;;;;;;;2.95;2.22;;;13.70;99.90;;;;;;5072404;28;20173;-52
2022/11/13 11:31:25;;;;;;;3.00;1.90;;;13.80;99.90;;;;;;5054905;28;20227;-52
2022/11/13 11:34:01;;;;;;;2.22;1.77;;;13.80;99.90;;;;;;5072555;28;20179;-53
2022/11/13 11:36:56;;;;;;;2.25;2.05;;;13.90;99.90;;;;;;5072647;28;20177;-52
2022/11/13 11:39:35;;;;;;;2.88;1.90;;;13.90;99.90;;;;;;5072253;28;20170;-53
2022/11/13 11:42:29;;;;;;;4.93;2.03;;;13.90;99.90;;;;;;5072324;28;20172;-52
2022/11/13 11:45:12;;;;;;;2.22;2.03;;;14.00;99.90;;;;;;5072437;28;20174;-52
2022/11/13 11:47:38;;;;;;;2.30;1.83;;;14.00;99.90;;;;;;5072104;28;20162;-52
2022/11/13 11:50:11;;;;;;;2.17;1.80;;;14.00;99.90;;;;;;5054063;28;20181;-52
2022/11/13 11:53:02;;;;;;;2.47;1.45;;;14.00;99.90;;;;;;5072029;28;20227;-52
2022/11/13 11:55:28;;;;;;;2.28;1.80;;;14.00;99.90;;;;;;5072283;28;20174;-53
2022/11/13 11:58:12;;;;;;;2.00;1.80;;;14.00;99.90;;;;;;5071848;28;20219;-54
2022/11/13 12:00:47;;;;;;;3.78;2.00;;;14.00;99.90;;;;;;5070975;28;20214;-53
2022/11/13 12:03:50;;;;;;;3.75;1.60;;;14.00;99.90;;;;;;5053696;28;20680;-55
2022/11/13 12:06:30;;;;;;;2.10;1.70;;;14.10;99.90;;;;;;5071726;28;20625;-52
2022/11/13 12:09:01;;;;;;;1.80;1.70;;;14.00;99.90;;;;;;5072024;28;20633;-52
2022/11/13 12:11:30;;;;;;;2.22;1.90;;;14.10;99.90;;;;;;5072035;28;20582;-53
2022/11/13 12:13:59;;;;;;;2.85;1.83;;;14.10;99.90;;;;;;5072002;28;20189;-52
2022/11/13 12:16:34;;;;;;;2.58;1.95;;;14.10;99.90;;;;;;5071531;28;20558;-60
2022/11/13 12:19:15;;;;;;;2.25;1.80;;;14.00;99.90;;;;;;5071769;28;20162;-50
2022/11/13 12:22:03;;;;;;;3.42;1.73;;;14.00;99.90;;;;;;5071431;28;20166;-53
2022/11/13 12:24:28;;;;;;;5.03;1.90;;;14.10;99.90;;;;;;5071713;28;20174;-53
2022/11/13 12:27:00;;;;;;;2.47;1.95;;;14.00;99.90;;;;;;5071559;28;20162;-53
2022/11/13 12:29:46;;;;;;;2.40;2.10;;;14.00;99.90;;;;;;5071622;28;20200;-54
2022/11/13 12:32:28;;;;;;;3.97;2.10;;;14.00;99.90;;;;;;5071280;28;20166;-54
2022/11/13 12:35:08;;;;;;;2.55;1.67;;;14.00;99.90;;;;;;5071373;28;20311;-57
2022/11/13 12:37:54;;;;;;;5.13;1.70;;;14.00;99.90;;;;;;5071362;28;20253;-55
2022/11/13 12:40:29;;;;;;;2.22;1.70;;;14.00;99.90;;;;;;5071209;28;21779;-53
2022/11/13 12:43:06;;;;;;;2.75;1.80;;;13.90;99.90;;;;;;5070898;28;20685;-54
2022/11/13 12:45:37;;;;;;;1.90;1.70;;;13.90;99.90;;;;;;5070846;28;20668;-48
2022/11/13 12:48:27;;;;;;;2.10;1.90;;;14.00;99.90;;;;;;5053003;28;20174;-48
2022/11/13 12:51:06;;;;;;;3.05;2.28;;;14.00;99.90;;;;;;5053231;28;20206;-49
2022/11/13 12:53:48;;;;;;;7.10;4.18;;;13.90;99.90;;;;;;5071089;28;20186;-48
2022/11/13 12:56:17;;;;;;;7.70;5.10;;;13.90;99.90;;;;;;5070677;28;20173;-52
2022/11/13 12:58:55;;;;;;;10.25;5.90;;;13.90;99.90;;;;;;5070546;28;20224;-52
2022/11/13 13:01:22;;;;;;;6.20;4.30;;;13.80;99.90;;;;;;5070639;28;20174;-54
2022/11/13 13:04:26;;;;;;;31.65;16.75;;;13.80;99.90;;;;;;5070443;28;20641;-51